Palmdale, CA

3:47 PM PDT on August 21, 2014 (GMT -0700)
Wild Hare Ranch | Change Station
CLOSE
Current Station
Personal Weather Station
Location: Acton, CA
Elevation: 3793 ft
Nearby Weather Stations

Elev 3793 ft 34.52 °N, 118.16 °W | Updated 46 seconds ago

Scattered Clouds
Scattered Clouds
81.2 °F
Feels Like 81 °F
N
11.0
Wind Variable Wind from NE
Gusts 18.0 mph

Today
High -- | Low -- °F
--% Chance of Precip.
Yesterday
High -- | Low -- °F
Precip. -- in
6:17 AM 7:32 PM
Waning Crescent, 12% visible
Pressure 29.85 in
Visibility 10.0 miles
Clouds Scattered Clouds 8500 ft
Heat Index 81 °F
Dew Point 55 °F
Humidity 40%
Rainfall 0.00 in
Snow Depth Not available.
UV 7 out of 12
Pollen 5.40 out of 12
Ozone Good
Flu Activity Not available.
METAR KPMD 212153Z 31007G17KT 260V350 10SM SCT085 33/09 A2994 RMK AO2 SLP108 T03280089

More Conditions Fewer Conditions

Pressure 29.85 in
Visibility 10.0 miles
Clouds Scattered Clouds 8500 ft
Heat Index 81 °F
Dew Point 55 °F
Humidity 40%
Rainfall 0.00 in
Snow Depth Not available.
UV 7 out of 12
Pollen 5.40 out of 12
Ozone Good
Flu Activity Not available.
METAR KPMD 212153Z 31007G17KT 260V350 10SM SCT085 33/09 A2994 RMK AO2 SLP108 T03280089

More Conditions Fewer Conditions

10-Day Weather Forecast

Almanac

Astronomy

Aug. 21, 2014 Rise Set
Actual Time 6:17 AM PDT 7:32 PM PDT
Civil Twilight 5:51 AM PDT 7:59 PM PDT
Nautical Twilight 5:20 AM PDT 8:30 PM PDT
Astronomical Twilight 4:47 AM PDT 9:02 PM PDT
Moon 2:56 AM PDT 5:01 PM PDT
Length of Visible Light 14h 07m
Length of Day
13h 15m
Tomorrow will be 1m 59s shorter.
Waning Crescent, 12% of the Moon is Illuminated
Today
Waning Crescent
Aug 25
New
Sep 2
First Quarter
Sep 8
Full
Sep 15
Last Quarter

Today's Extremes

State Highs State Lows

Community

WunderPhotos

Upload Photos

1,746,044 photos uploaded!

WunderBlogs® & News

Nearby

Air Quality

  Air Quality AQ Index Pollutant
Yesterday Moderate
OZONE
Yesterday Good
PM10
Current Good
OZONE
Friday Good
OZONE
Friday Good
PM10
Friday Good
CO
Friday Good
NO2

Snow Depth

Station Depth Elevation
Leavitt Meadows 1 in 7200 ft
Monitor Pass 0 in 8350 ft
Tahoe City Cross 0 in 6750 ft
CSS Lab 0 in 6900 ft
Adin Mountain 1 in 6200 ft

Earthquake Activity

City Distance Mag. Time & Date
Malibu Beach, California 52 miles 3.4 10:03 AM PDT
2014-08-15
Kettleman City, California 149 miles 2.9 11:32 PM PDT
2014-08-14
Yucca Valley, California 97 miles 3.8 8:57 PM PDT
2014-08-14
Minimum magnitude displayed is 2.5.

Coastal Water Temperatures

Place Temperature
No Stations Reporting

Nearby Weather Stations